sensor_id;sensor_type;location;lat;lon;timestamp;pressure;altitude;pressure_sealevel;temperature;humidity
67377;BME280;54261;46.086;6.588;2023-03-15T00:00:37;92303.56;;;3.55;45.80
67377;BME280;54261;46.086;6.588;2023-03-15T00:05:41;92294.84;;;4.63;45.25
67377;BME280;54261;46.086;6.588;2023-03-15T00:10:45;92309.34;;;1.70;49.35
67377;BME280;54261;46.086;6.588;2023-03-15T00:15:49;92366.59;;;-2.77;65.08
67377;BME280;54261;46.086;6.588;2023-03-15T00:20:51;92375.22;;;-1.57;63.75
67377;BME280;54261;46.086;6.588;2023-03-15T00:25:53;92381.25;;;-3.10;66.01
67377;BME280;54261;46.086;6.588;2023-03-15T00:36:10;92375.88;;;-0.72;61.82
67377;BME280;54261;46.086;6.588;2023-03-15T00:41:14;92394.53;;;-4.65;73.94
67377;BME280;54261;46.086;6.588;2023-03-15T00:46:17;92374.53;;;-2.89;71.95
67377;BME280;54261;46.086;6.588;2023-03-15T00:51:21;92394.97;;;-5.97;82.40
67377;BME280;54261;46.086;6.588;2023-03-15T00:56:25;92377.69;;;-2.24;74.30
67377;BME280;54261;46.086;6.588;2023-03-15T01:01:28;92385.31;;;-2.05;67.18
67377;BME280;54261;46.086;6.588;2023-03-15T01:06:30;92388.06;;;-2.17;64.72
67377;BME280;54261;46.086;6.588;2023-03-15T01:11:33;92393.09;;;-0.92;63.74
67377;BME280;54261;46.086;6.588;2023-03-15T01:16:35;92362.56;;;0.15;59.55
67377;BME280;54261;46.086;6.588;2023-03-15T01:21:38;92397.19;;;2.24;56.97
67377;BME280;54261;46.086;6.588;2023-03-15T01:26:40;92401.34;;;2.67;54.00
67377;BME280;54261;46.086;6.588;2023-03-15T01:31:44;92386.09;;;3.04;52.61
67377;BME280;54261;46.086;6.588;2023-03-15T01:36:49;92387.09;;;3.63;51.51
67377;BME280;54261;46.086;6.588;2023-03-15T01:41:53;92391.31;;;4.09;50.90
67377;BME280;54261;46.086;6.588;2023-03-15T01:46:55;92380.56;;;3.50;49.87
67377;BME280;54261;46.086;6.588;2023-03-15T01:52:08;92373.19;;;3.42;47.16
67377;BME280;54261;46.086;6.588;2023-03-15T01:57:47;92373.06;;;2.31;48.92
67377;BME280;54261;46.086;6.588;2023-03-15T02:03:12;92364.41;;;2.96;47.97
67377;BME280;54261;46.086;6.588;2023-03-15T02:08:19;92368.34;;;2.99;48.59
67377;BME280;54261;46.086;6.588;2023-03-15T02:13:24;92369.03;;;2.65;49.38
67377;BME280;54261;46.086;6.588;2023-03-15T02:18:29;92362.00;;;1.87;50.31
67377;BME280;54261;46.086;6.588;2023-03-15T02:23:31;92351.16;;;1.84;51.79
67377;BME280;54261;46.086;6.588;2023-03-15T02:28:34;92351.53;;;2.69;49.25
67377;BME280;54261;46.086;6.588;2023-03-15T02:33:48;92351.75;;;3.33;48.17
67377;BME280;54261;46.086;6.588;2023-03-15T02:38:52;92355.31;;;3.53;47.11
67377;BME280;54261;46.086;6.588;2023-03-15T02:43:58;92360.56;;;3.98;46.23
67377;BME280;54261;46.086;6.588;2023-03-15T02:49:03;92364.66;;;4.20;45.54
67377;BME280;54261;46.086;6.588;2023-03-15T02:54:07;92360.81;;;3.67;45.79
67377;BME280;54261;46.086;6.588;2023-03-15T02:59:09;92368.91;;;3.86;44.41
67377;BME280;54261;46.086;6.588;2023-03-15T03:04:13;92378.22;;;4.18;43.95
67377;BME280;54261;46.086;6.588;2023-03-15T03:09:15;92377.50;;;3.73;43.92
67377;BME280;54261;46.086;6.588;2023-03-15T03:14:17;92389.19;;;3.71;43.24
67377;BME280;54261;46.086;6.588;2023-03-15T03:19:19;92387.59;;;3.25;44.13
67377;BME280;54261;46.086;6.588;2023-03-15T03:24:26;92394.09;;;3.89;43.87
67377;BME280;54261;46.086;6.588;2023-03-15T03:29:28;92391.44;;;3.49;43.22
67377;BME280;54261;46.086;6.588;2023-03-15T03:34:34;92392.34;;;3.74;43.17
67377;BME280;54261;46.086;6.588;2023-03-15T03:39:36;92392.16;;;3.14;43.56
67377;BME280;54261;46.086;6.588;2023-03-15T03:44:39;92385.06;;;2.94;43.61
67377;BME280;54261;46.086;6.588;2023-03-15T03:49:42;92393.13;;;3.29;44.33
67377;BME280;54261;46.086;6.588;2023-03-15T03:54:43;92397.09;;;3.32;42.59
67377;BME280;54261;46.086;6.588;2023-03-15T03:59:45;92404.06;;;2.25;44.13
67377;BME280;54261;46.086;6.588;2023-03-15T04:04:48;92402.47;;;2.19;45.10
67377;BME280;54261;46.086;6.588;2023-03-15T04:09:53;92393.13;;;2.68;45.23
67377;BME280;54261;46.086;6.588;2023-03-15T04:14:55;92409.38;;;3.17;44.11
67377;BME280;54261;46.086;6.588;2023-03-15T04:20:01;92411.31;;;3.01;43.50
67377;BME280;54261;46.086;6.588;2023-03-15T04:25:06;92389.44;;;2.64;43.29
67377;BME280;54261;46.086;6.588;2023-03-15T04:30:25;92409.63;;;3.21;42.42
67377;BME280;54261;46.086;6.588;2023-03-15T04:35:41;92416.78;;;2.02;43.34
67377;BME280;54261;46.086;6.588;2023-03-15T04:41:07;92412.50;;;2.58;43.68
67377;BME280;54261;46.086;6.588;2023-03-15T04:46:32;92382.28;;;2.59;42.45
67377;BME280;54261;46.086;6.588;2023-03-15T04:51:44;92347.94;;;2.13;42.33
67377;BME280;54261;46.086;6.588;2023-03-15T04:56:58;92406.16;;;2.34;43.14
67377;BME280;54261;46.086;6.588;2023-03-15T05:02:14;92412.00;;;2.41;42.70
67377;BME280;54261;46.086;6.588;2023-03-15T05:07:48;92414.88;;;2.65;42.24
67377;BME280;54261;46.086;6.588;2023-03-15T05:13:10;92418.59;;;2.38;41.86
67377;BME280;54261;46.086;6.588;2023-03-15T05:18:45;92427.56;;;2.79;42.15
67377;BME280;54261;46.086;6.588;2023-03-15T05:24:07;92434.44;;;2.80;41.67
67377;BME280;54261;46.086;6.588;2023-03-15T05:29:23;92414.94;;;2.44;41.78
67377;BME280;54261;46.086;6.588;2023-03-15T05:34:35;92448.00;;;2.68;41.53
67377;BME280;54261;46.086;6.588;2023-03-15T05:39:55;92453.56;;;2.71;41.62
67377;BME280;54261;46.086;6.588;2023-03-15T05:45:23;92459.34;;;2.79;41.34
67377;BME280;54261;46.086;6.588;2023-03-15T05:50:38;92465.75;;;2.72;41.17
67377;BME280;54261;46.086;6.588;2023-03-15T05:56:09;92474.22;;;1.76;41.37
67377;BME280;54261;46.086;6.588;2023-03-15T06:01:30;92478.81;;;1.22;42.81
67377;BME280;54261;46.086;6.588;2023-03-15T06:06:44;92456.22;;;1.94;42.48
67377;BME280;54261;46.086;6.588;2023-03-15T06:11:47;92473.72;;;2.21;42.79
67377;BME280;54261;46.086;6.588;2023-03-15T06:16:50;92448.16;;;1.21;43.04
67377;BME280;54261;46.086;6.588;2023-03-15T06:21:53;92481.94;;;2.09;43.30
67377;BME280;54261;46.086;6.588;2023-03-15T06:27:04;92478.25;;;2.41;42.66
67377;BME280;54261;46.086;6.588;2023-03-15T06:32:09;92481.69;;;2.57;41.98
67377;BME280;54261;46.086;6.588;2023-03-15T06:37:13;92487.78;;;2.63;41.33
67377;BME280;54261;46.086;6.588;2023-03-15T06:42:30;92484.81;;;2.38;41.79
67377;BME280;54261;46.086;6.588;2023-03-15T06:47:32;92508.97;;;2.52;42.07
67377;BME280;54261;46.086;6.588;2023-03-15T06:52:34;92504.44;;;2.22;42.80
67377;BME280;54261;46.086;6.588;2023-03-15T06:57:36;92518.25;;;2.55;41.94
67377;BME280;54261;46.086;6.588;2023-03-15T07:02:38;92527.16;;;1.81;43.98
67377;BME280;54261;46.086;6.588;2023-03-15T07:07:40;92525.06;;;1.94;43.61
67377;BME280;54261;46.086;6.588;2023-03-15T07:12:42;92529.81;;;1.97;43.56
67377;BME280;54261;46.086;6.588;2023-03-15T07:17:44;92536.69;;;1.87;43.71
67377;BME280;54261;46.086;6.588;2023-03-15T07:22:46;92530.44;;;2.46;43.30
67377;BME280;54261;46.086;6.588;2023-03-15T07:27:49;92536.28;;;2.42;42.64
67377;BME280;54261;46.086;6.588;2023-03-15T07:32:51;92547.13;;;2.51;43.61
67377;BME280;54261;46.086;6.588;2023-03-15T07:37:53;92534.38;;;2.27;43.72
67377;BME280;54261;46.086;6.588;2023-03-15T07:42:55;92554.28;;;2.71;43.16
67377;BME280;54261;46.086;6.588;2023-03-15T07:47:57;92542.56;;;2.36;42.93
67377;BME280;54261;46.086;6.588;2023-03-15T07:52:59;92563.03;;;2.67;43.24
67377;BME280;54261;46.086;6.588;2023-03-15T07:58:02;92563.56;;;2.64;42.99
67377;BME280;54261;46.086;6.588;2023-03-15T08:03:04;92548.16;;;2.97;43.00
67377;BME280;54261;46.086;6.588;2023-03-15T08:08:07;92557.09;;;3.32;43.02
67377;BME280;54261;46.086;6.588;2023-03-15T08:13:10;92558.13;;;3.36;42.07
67377;BME280;54261;46.086;6.588;2023-03-15T08:18:12;92556.53;;;3.46;42.74
67377;BME280;54261;46.086;6.588;2023-03-15T08:23:14;92547.47;;;3.57;41.94
67377;BME280;54261;46.086;6.588;2023-03-15T08:28:17;92543.63;;;3.13;42.10
67377;BME280;54261;46.086;6.588;2023-03-15T08:33:19;92554.59;;;3.67;43.43
67377;BME280;54261;46.086;6.588;2023-03-15T08:38:22;92560.75;;;3.47;44.59
67377;BME280;54261;46.086;6.588;2023-03-15T08:43:24;92556.66;;;3.80;43.45
67377;BME280;54261;46.086;6.588;2023-03-15T08:48:26;92567.22;;;2.89;44.91
67377;BME280;54261;46.086;6.588;2023-03-15T08:53:29;92550.75;;;3.23;44.70
67377;BME280;54261;46.086;6.588;2023-03-15T08:58:32;92565.41;;;2.73;46.31
67377;BME280;54261;46.086;6.588;2023-03-15T09:03:35;92573.84;;;3.17;46.33
67377;BME280;54261;46.086;6.588;2023-03-15T09:08:36;92574.66;;;5.08;45.89
67377;BME280;54261;46.086;6.588;2023-03-15T09:13:38;92570.22;;;3.68;44.30
67377;BME280;54261;46.086;6.588;2023-03-15T09:18:40;92567.09;;;3.61;44.61
67377;BME280;54261;46.086;6.588;2023-03-15T09:23:44;92578.69;;;3.70;44.91
67377;BME280;54261;46.086;6.588;2023-03-15T09:28:46;92578.63;;;4.47;46.27
67377;BME280;54261;46.086;6.588;2023-03-15T09:33:48;92578.84;;;4.10;43.17
67377;BME280;54261;46.086;6.588;2023-03-15T09:38:50;92583.13;;;5.40;43.11
67377;BME280;54261;46.086;6.588;2023-03-15T09:44:09;92580.41;;;6.18;41.45
67377;BME280;54261;46.086;6.588;2023-03-15T09:49:18;92565.03;;;7.34;37.89
67377;BME280;54261;46.086;6.588;2023-03-15T09:54:27;92587.22;;;8.18;37.61
67377;BME280;54261;46.086;6.588;2023-03-15T09:59:39;92578.00;;;6.93;36.77
67377;BME280;54261;46.086;6.588;2023-03-15T10:04:45;92579.00;;;7.59;37.78
67377;BME280;54261;46.086;6.588;2023-03-15T10:09:48;92572.88;;;8.14;37.48
67377;BME280;54261;46.086;6.588;2023-03-15T10:20:18;92584.28;;;9.57;37.54
67377;BME280;54261;46.086;6.588;2023-03-15T10:25:28;92576.75;;;9.59;36.38
67377;BME280;54261;46.086;6.588;2023-03-15T10:30:32;92574.50;;;9.92;36.11
67377;BME280;54261;46.086;6.588;2023-03-15T10:35:37;92589.78;;;7.54;34.63
67377;BME280;54261;46.086;6.588;2023-03-15T10:51:19;92560.13;;;9.80;37.31
67377;BME280;54261;46.086;6.588;2023-03-15T10:56:26;92576.66;;;12.23;35.90
67377;BME280;54261;46.086;6.588;2023-03-15T11:01:31;92570.34;;;12.19;30.87
67377;BME280;54261;46.086;6.588;2023-03-15T11:06:45;92568.25;;;11.56;31.81
67377;BME280;54261;46.086;6.588;2023-03-15T11:11:59;92563.69;;;5.15;35.52
67377;BME280;54261;46.086;6.588;2023-03-15T11:17:03;92568.81;;;1.38;45.78
67377;BME280;54261;46.086;6.588;2023-03-15T11:22:10;92567.16;;;3.35;39.11
67377;BME280;54261;46.086;6.588;2023-03-15T11:27:15;92557.84;;;5.13;38.53
67377;BME280;54261;46.086;6.588;2023-03-15T11:32:26;92563.22;;;6.82;36.58
67377;BME280;54261;46.086;6.588;2023-03-15T11:42:40;92534.91;;;6.48;36.97
67377;BME280;54261;46.086;6.588;2023-03-15T11:48:02;92535.75;;;8.49;32.70
67377;BME280;54261;46.086;6.588;2023-03-15T11:53:05;92531.22;;;3.69;38.98
67377;BME280;54261;46.086;6.588;2023-03-15T11:58:33;92524.06;;;2.62;42.35
67377;BME280;54261;46.086;6.588;2023-03-15T12:03:37;92522.78;;;0.47;43.29
67377;BME280;54261;46.086;6.588;2023-03-15T12:08:41;92513.72;;;2.71;38.96
67377;BME280;54261;46.086;6.588;2023-03-15T12:18:59;92496.41;;;3.10;41.95
67377;BME280;54261;46.086;6.588;2023-03-15T12:24:06;92495.94;;;5.32;36.94
67377;BME280;54261;46.086;6.588;2023-03-15T12:29:22;92490.22;;;8.04;33.18
67377;BME280;54261;46.086;6.588;2023-03-15T12:34:41;92475.03;;;2.08;38.73
67377;BME280;54261;46.086;6.588;2023-03-15T12:44:51;92482.91;;;3.67;36.77
67377;BME280;54261;46.086;6.588;2023-03-15T12:49:53;92468.41;;;7.18;32.02
67377;BME280;54261;46.086;6.588;2023-03-15T12:55:16;92483.25;;;7.24;28.97
67377;BME280;54261;46.086;6.588;2023-03-15T13:00:24;92476.09;;;5.87;29.92
67377;BME280;54261;46.086;6.588;2023-03-15T13:05:32;92462.81;;;6.39;33.12
67377;BME280;54261;46.086;6.588;2023-03-15T13:10:59;92460.25;;;5.57;33.53
67377;BME280;54261;46.086;6.588;2023-03-15T13:16:14;92461.44;;;3.63;32.55
67377;BME280;54261;46.086;6.588;2023-03-15T13:21:32;92448.84;;;2.01;34.26
67377;BME280;54261;46.086;6.588;2023-03-15T13:31:46;92443.28;;;6.77;31.80
67377;BME280;54261;46.086;6.588;2023-03-15T13:37:00;92457.06;;;3.33;35.50
67377;BME280;54261;46.086;6.588;2023-03-15T13:42:18;92458.09;;;3.87;33.43
67377;BME280;54261;46.086;6.588;2023-03-15T13:47:20;92464.25;;;6.98;30.07
67377;BME280;54261;46.086;6.588;2023-03-15T13:52:25;92457.28;;;4.32;30.45
67377;BME280;54261;46.086;6.588;2023-03-15T13:57:28;92443.63;;;9.19;26.66
67377;BME280;54261;46.086;6.588;2023-03-15T14:07:47;92460.50;;;11.70;23.65
67377;BME280;54261;46.086;6.588;2023-03-15T14:12:51;92463.06;;;6.04;30.39
67377;BME280;54261;46.086;6.588;2023-03-15T14:18:02;92442.69;;;8.92;26.23
67377;BME280;54261;46.086;6.588;2023-03-15T14:23:09;92459.38;;;5.62;31.15
67377;BME280;54261;46.086;6.588;2023-03-15T14:28:14;92460.09;;;6.91;30.32
67377;BME280;54261;46.086;6.588;2023-03-15T14:38:37;92461.00;;;6.34;29.19
67377;BME280;54261;46.086;6.588;2023-03-15T14:43:39;92468.09;;;4.06;30.04
67377;BME280;54261;46.086;6.588;2023-03-15T14:48:41;92451.09;;;9.08;24.64
67377;BME280;54261;46.086;6.588;2023-03-15T14:53:44;92454.06;;;7.56;26.74
67377;BME280;54261;46.086;6.588;2023-03-15T14:58:47;92455.94;;;10.57;24.49
67377;BME280;54261;46.086;6.588;2023-03-15T15:03:53;92451.81;;;6.60;27.05
67377;BME280;54261;46.086;6.588;2023-03-15T15:08:59;92447.75;;;6.95;28.79
67377;BME280;54261;46.086;6.588;2023-03-15T15:14:02;92454.00;;;5.48;29.06
67377;BME280;54261;46.086;6.588;2023-03-15T15:19:03;92456.72;;;7.56;28.28
67377;BME280;54261;46.086;6.588;2023-03-15T15:24:13;92462.94;;;7.93;28.12
67377;BME280;54261;46.086;6.588;2023-03-15T15:29:16;92474.94;;;5.74;29.07
67377;BME280;54261;46.086;6.588;2023-03-15T15:34:17;92470.59;;;7.30;27.28
67377;BME280;54261;46.086;6.588;2023-03-15T15:39:25;92483.16;;;5.96;31.69
67377;BME280;54261;46.086;6.588;2023-03-15T15:44:28;92475.81;;;4.37;30.49
67377;BME280;54261;46.086;6.588;2023-03-15T15:49:30;92477.03;;;6.15;30.29
67377;BME280;54261;46.086;6.588;2023-03-15T15:54:32;92472.41;;;2.08;32.00
67377;BME280;54261;46.086;6.588;2023-03-15T15:59:37;92457.44;;;4.46;30.24
67377;BME280;54261;46.086;6.588;2023-03-15T16:04:39;92490.53;;;4.59;31.52
67377;BME280;54261;46.086;6.588;2023-03-15T16:09:44;92483.81;;;5.69;29.24
67377;BME280;54261;46.086;6.588;2023-03-15T16:14:47;92482.06;;;4.22;31.32
67377;BME280;54261;46.086;6.588;2023-03-15T16:19:49;92453.97;;;3.65;30.82
67377;BME280;54261;46.086;6.588;2023-03-15T16:24:53;92474.34;;;3.30;30.92
67377;BME280;54261;46.086;6.588;2023-03-15T16:29:57;92484.03;;;2.38;32.55
67377;BME280;54261;46.086;6.588;2023-03-15T16:35:00;92498.97;;;4.95;28.33
67377;BME280;54261;46.086;6.588;2023-03-15T16:40:02;92490.28;;;6.01;28.92
67377;BME280;54261;46.086;6.588;2023-03-15T16:45:11;92505.81;;;7.60;28.78
67377;BME280;54261;46.086;6.588;2023-03-15T16:50:14;92511.66;;;4.74;29.40
67377;BME280;54261;46.086;6.588;2023-03-15T16:55:21;92512.13;;;2.59;32.86
67377;BME280;54261;46.086;6.588;2023-03-15T17:00:24;92524.72;;;5.00;31.16
67377;BME280;54261;46.086;6.588;2023-03-15T17:05:26;92530.50;;;3.48;30.51
67377;BME280;54261;46.086;6.588;2023-03-15T17:10:29;92535.13;;;4.67;28.18
67377;BME280;54261;46.086;6.588;2023-03-15T17:15:32;92506.81;;;3.62;32.65
67377;BME280;54261;46.086;6.588;2023-03-15T17:20:34;92529.53;;;8.03;26.69
67377;BME280;54261;46.086;6.588;2023-03-15T17:25:36;92524.44;;;4.72;29.68
67377;BME280;54261;46.086;6.588;2023-03-15T17:30:38;92529.94;;;8.33;26.70
67377;BME280;54261;46.086;6.588;2023-03-15T17:35:42;92531.88;;;6.74;27.43
67377;BME280;54261;46.086;6.588;2023-03-15T17:40:44;92509.34;;;7.83;26.67
67377;BME280;54261;46.086;6.588;2023-03-15T17:45:47;92543.16;;;9.21;25.45
67377;BME280;54261;46.086;6.588;2023-03-15T17:50:48;92556.41;;;8.58;29.02
67377;BME280;54261;46.086;6.588;2023-03-15T17:55:50;92557.16;;;8.72;28.68
67377;BME280;54261;46.086;6.588;2023-03-15T18:00:54;92566.00;;;8.36;29.01
67377;BME280;54261;46.086;6.588;2023-03-15T18:05:55;92563.75;;;8.52;28.46
67377;BME280;54261;46.086;6.588;2023-03-15T18:10:58;92563.78;;;9.20;26.91
67377;BME280;54261;46.086;6.588;2023-03-15T18:16:00;92567.94;;;8.81;26.89
67377;BME280;54261;46.086;6.588;2023-03-15T18:21:02;92564.09;;;5.57;30.63
67377;BME280;54261;46.086;6.588;2023-03-15T18:26:03;92570.75;;;6.80;31.84
67377;BME280;54261;46.086;6.588;2023-03-15T18:31:13;92565.06;;;6.29;31.69
67377;BME280;54261;46.086;6.588;2023-03-15T18:36:16;92562.38;;;6.10;31.94
67377;BME280;54261;46.086;6.588;2023-03-15T18:41:21;92561.03;;;6.32;31.95
67377;BME280;54261;46.086;6.588;2023-03-15T18:46:24;92555.72;;;7.31;31.51
67377;BME280;54261;46.086;6.588;2023-03-15T18:51:26;92552.56;;;6.05;32.95
67377;BME280;54261;46.086;6.588;2023-03-15T18:56:29;92543.19;;;6.85;32.64
67377;BME280;54261;46.086;6.588;2023-03-15T19:01:35;92543.66;;;6.15;33.65
67377;BME280;54261;46.086;6.588;2023-03-15T19:06:36;92538.16;;;5.14;34.93
67377;BME280;54261;46.086;6.588;2023-03-15T19:11:38;92519.03;;;6.23;33.61
67377;BME280;54261;46.086;6.588;2023-03-15T19:16:42;92534.47;;;5.83;33.51
67377;BME280;54261;46.086;6.588;2023-03-15T19:21:44;92541.84;;;5.67;33.88
67377;BME280;54261;46.086;6.588;2023-03-15T19:26:46;92537.09;;;4.86;34.16
67377;BME280;54261;46.086;6.588;2023-03-15T19:31:47;92541.03;;;5.18;33.73
67377;BME280;54261;46.086;6.588;2023-03-15T19:36:50;92542.81;;;4.34;35.76
67377;BME280;54261;46.086;6.588;2023-03-15T19:41:52;92530.66;;;4.22;34.05
67377;BME280;54261;46.086;6.588;2023-03-15T19:46:54;92547.03;;;5.58;33.38
67377;BME280;54261;46.086;6.588;2023-03-15T19:51:56;92538.44;;;5.37;32.29
67377;BME280;54261;46.086;6.588;2023-03-15T19:56:58;92542.81;;;5.27;33.24
67377;BME280;54261;46.086;6.588;2023-03-15T20:02:00;92548.28;;;4.13;34.98
67377;BME280;54261;46.086;6.588;2023-03-15T20:07:02;92546.66;;;4.87;33.50
67377;BME280;54261;46.086;6.588;2023-03-15T20:12:05;92535.94;;;5.21;33.69
67377;BME280;54261;46.086;6.588;2023-03-15T20:17:08;92547.56;;;4.72;33.99
67377;BME280;54261;46.086;6.588;2023-03-15T20:22:10;92534.50;;;5.34;33.52
67377;BME280;54261;46.086;6.588;2023-03-15T20:27:12;92563.34;;;5.51;32.77
67377;BME280;54261;46.086;6.588;2023-03-15T20:32:14;92546.59;;;4.92;33.93
67377;BME280;54261;46.086;6.588;2023-03-15T20:37:16;92559.97;;;5.40;33.23
67377;BME280;54261;46.086;6.588;2023-03-15T20:42:21;92574.78;;;4.93;34.23
67377;BME280;54261;46.086;6.588;2023-03-15T20:47:23;92574.38;;;5.39;33.41
67377;BME280;54261;46.086;6.588;2023-03-15T20:52:25;92555.94;;;5.19;33.45
67377;BME280;54261;46.086;6.588;2023-03-15T20:57:28;92563.78;;;4.75;32.29
67377;BME280;54261;46.086;6.588;2023-03-15T21:02:30;92566.59;;;4.14;33.81
67377;BME280;54261;46.086;6.588;2023-03-15T21:07:32;92565.84;;;3.98;34.32
67377;BME280;54261;46.086;6.588;2023-03-15T21:12:35;92561.28;;;4.84;34.18
67377;BME280;54261;46.086;6.588;2023-03-15T21:17:36;92570.59;;;4.87;33.26
67377;BME280;54261;46.086;6.588;2023-03-15T21:22:38;92560.53;;;4.78;34.30
67377;BME280;54261;46.086;6.588;2023-03-15T21:27:41;92551.31;;;5.00;33.90
67377;BME280;54261;46.086;6.588;2023-03-15T21:32:43;92561.03;;;4.86;34.54
67377;BME280;54261;46.086;6.588;2023-03-15T21:37:45;92563.75;;;4.80;34.42
67377;BME280;54261;46.086;6.588;2023-03-15T21:42:47;92570.09;;;4.84;34.26
67377;BME280;54261;46.086;6.588;2023-03-15T21:47:49;92559.38;;;4.95;33.75
67377;BME280;54261;46.086;6.588;2023-03-15T21:52:53;92554.59;;;4.57;33.74
67377;BME280;54261;46.086;6.588;2023-03-15T21:57:55;92559.13;;;4.17;34.80
67377;BME280;54261;46.086;6.588;2023-03-15T22:02:56;92566.72;;;2.92;37.50
67377;BME280;54261;46.086;6.588;2023-03-15T22:07:58;92576.38;;;3.64;35.34
67377;BME280;54261;46.086;6.588;2023-03-15T22:13:00;92563.16;;;3.43;36.06
67377;BME280;54261;46.086;6.588;2023-03-15T22:18:02;92561.88;;;4.06;34.55
67377;BME280;54261;46.086;6.588;2023-03-15T22:23:04;92560.09;;;4.31;33.44
67377;BME280;54261;46.086;6.588;2023-03-15T22:28:06;92568.41;;;4.19;33.20
67377;BME280;54261;46.086;6.588;2023-03-15T22:33:08;92559.81;;;3.77;34.31
67377;BME280;54261;46.086;6.588;2023-03-15T22:38:10;92547.00;;;3.95;34.42
67377;BME280;54261;46.086;6.588;2023-03-15T22:43:13;92524.59;;;4.17;34.70
67377;BME280;54261;46.086;6.588;2023-03-15T22:48:15;92541.63;;;4.50;34.15
67377;BME280;54261;46.086;6.588;2023-03-15T22:53:17;92553.94;;;4.41;34.40
67377;BME280;54261;46.086;6.588;2023-03-15T22:58:19;92536.84;;;4.12;34.88
67377;BME280;54261;46.086;6.588;2023-03-15T23:03:21;92553.91;;;3.91;34.96
67377;BME280;54261;46.086;6.588;2023-03-15T23:08:23;92554.72;;;4.02;35.51
67377;BME280;54261;46.086;6.588;2023-03-15T23:13:25;92553.28;;;4.14;35.30
67377;BME280;54261;46.086;6.588;2023-03-15T23:18:26;92566.63;;;3.99;35.71
67377;BME280;54261;46.086;6.588;2023-03-15T23:23:28;92561.16;;;3.80;35.01
67377;BME280;54261;46.086;6.588;2023-03-15T23:28:32;92541.84;;;4.19;35.14
67377;BME280;54261;46.086;6.588;2023-03-15T23:33:34;92560.78;;;4.07;35.14
67377;BME280;54261;46.086;6.588;2023-03-15T23:38:36;92553.50;;;3.68;36.32
67377;BME280;54261;46.086;6.588;2023-03-15T23:43:37;92562.91;;;3.29;36.57
67377;BME280;54261;46.086;6.588;2023-03-15T23:48:40;92563.63;;;3.61;36.00
67377;BME280;54261;46.086;6.588;2023-03-15T23:53:42;92564.25;;;3.97;35.68
67377;BME280;54261;46.086;6.588;2023-03-15T23:58:44;92558.78;;;3.78;35.92
